Terminal Aerodrome Forecast
Issued by NWS Sterling, VA

Home | Current Version | Previous Version | Text Only | Print | Product List | Glossary On
Versions: 1 2 3 4 5 6 7 8 9 10 11 12 13 14 15 16 17 18 19 20
000
FTUS41 KLWX 271100
TAFIAD
TAF
KIAD 271140Z 2712/2818 VRB03KT P6SM BKN150
     FM272200 18005KT P6SM SCT200
     FM280800 VRB03KT P6SM OVC060
     FM281700 VRB03KT 6SM -RA OVC045=

USA.gov is the U.S. government's official web portal to all federal, state and local government web resources and services.